sensor_id;sensor_type;location;lat;lon;timestamp;P1;durP1;ratioP1;P2;durP2;ratioP2
2105;SDS011;1059;52.548;13.408;2022-09-16T00:00:54;4.77;;;1.37;;
2105;SDS011;1059;52.548;13.408;2022-09-16T00:03:21;2.60;;;1.60;;
2105;SDS011;1059;52.548;13.408;2022-09-16T00:05:50;2.90;;;1.23;;
2105;SDS011;1059;52.548;13.408;2022-09-16T00:08:18;3.47;;;1.83;;
2105;SDS011;1059;52.548;13.408;2022-09-16T00:10:46;3.53;;;1.60;;
2105;SDS011;1059;52.548;13.408;2022-09-16T00:13:14;4.33;;;1.50;;
2105;SDS011;1059;52.548;13.408;2022-09-16T00:15:42;4.13;;;1.23;;
2105;SDS011;1059;52.548;13.408;2022-09-16T00:18:09;1.83;;;1.20;;
2105;SDS011;1059;52.548;13.408;2022-09-16T00:20:41;2.43;;;1.20;;
2105;SDS011;1059;52.548;13.408;2022-09-16T00:23:10;5.50;;;1.97;;
2105;SDS011;1059;52.548;13.408;2022-09-16T00:25:36;3.73;;;1.20;;
2105;SDS011;1059;52.548;13.408;2022-09-16T00:28:03;5.47;;;1.40;;
2105;SDS011;1059;52.548;13.408;2022-09-16T00:30:30;1.83;;;1.30;;
2105;SDS011;1059;52.548;13.408;2022-09-16T00:32:57;1.83;;;1.10;;
2105;SDS011;1059;52.548;13.408;2022-09-16T00:35:24;2.43;;;1.10;;
2105;SDS011;1059;52.548;13.408;2022-09-16T00:37:54;2.00;;;1.10;;
2105;SDS011;1059;52.548;13.408;2022-09-16T00:40:22;2.87;;;1.00;;
2105;SDS011;1059;52.548;13.408;2022-09-16T00:42:49;3.60;;;1.37;;
2105;SDS011;1059;52.548;13.408;2022-09-16T00:45:17;2.80;;;1.40;;
2105;SDS011;1059;52.548;13.408;2022-09-16T00:47:46;6.73;;;1.47;;
2105;SDS011;1059;52.548;13.408;2022-09-16T00:50:16;2.40;;;1.30;;
2105;SDS011;1059;52.548;13.408;2022-09-16T00:52:47;3.00;;;1.80;;
2105;SDS011;1059;52.548;13.408;2022-09-16T00:55:16;2.23;;;1.50;;
2105;SDS011;1059;52.548;13.408;2022-09-16T00:57:50;3.33;;;1.80;;
2105;SDS011;1059;52.548;13.408;2022-09-16T01:00:18;4.37;;;1.73;;
2105;SDS011;1059;52.548;13.408;2022-09-16T01:02:45;2.17;;;1.50;;
2105;SDS011;1059;52.548;13.408;2022-09-16T01:05:14;2.83;;;1.63;;
2105;SDS011;1059;52.548;13.408;2022-09-16T01:07:46;1.93;;;1.23;;
2105;SDS011;1059;52.548;13.408;2022-09-16T01:10:16;4.20;;;1.90;;
2105;SDS011;1059;52.548;13.408;2022-09-16T01:12:46;4.43;;;1.73;;
2105;SDS011;1059;52.548;13.408;2022-09-16T01:15:19;5.20;;;1.70;;
2105;SDS011;1059;52.548;13.408;2022-09-16T01:17:51;3.47;;;1.60;;
2105;SDS011;1059;52.548;13.408;2022-09-16T01:20:38;2.03;;;1.30;;
2105;SDS011;1059;52.548;13.408;2022-09-16T01:23:52;3.63;;;1.43;;
2105;SDS011;1059;52.548;13.408;2022-09-16T01:26:55;6.40;;;1.90;;
2105;SDS011;1059;52.548;13.408;2022-09-16T01:29:41;5.33;;;1.80;;
2105;SDS011;1059;52.548;13.408;2022-09-16T01:32:28;3.07;;;1.30;;
2105;SDS011;1059;52.548;13.408;2022-09-16T01:35:06;3.10;;;1.63;;
2105;SDS011;1059;52.548;13.408;2022-09-16T01:37:41;3.77;;;1.63;;
2105;SDS011;1059;52.548;13.408;2022-09-16T01:40:18;6.90;;;2.13;;
2105;SDS011;1059;52.548;13.408;2022-09-16T01:42:55;5.83;;;1.80;;
2105;SDS011;1059;52.548;13.408;2022-09-16T01:45:29;2.07;;;1.40;;
2105;SDS011;1059;52.548;13.408;2022-09-16T01:48:04;3.50;;;1.43;;
2105;SDS011;1059;52.548;13.408;2022-09-16T01:50:38;6.20;;;1.40;;
2105;SDS011;1059;52.548;13.408;2022-09-16T01:53:11;4.70;;;1.40;;
2105;SDS011;1059;52.548;13.408;2022-09-16T01:55:44;2.23;;;1.37;;
2105;SDS011;1059;52.548;13.408;2022-09-16T01:58:16;2.37;;;1.60;;
2105;SDS011;1059;52.548;13.408;2022-09-16T02:00:48;6.20;;;1.73;;
2105;SDS011;1059;52.548;13.408;2022-09-16T02:03:22;5.40;;;1.87;;
2105;SDS011;1059;52.548;13.408;2022-09-16T02:05:52;3.23;;;1.60;;
2105;SDS011;1059;52.548;13.408;2022-09-16T02:08:23;4.10;;;2.00;;
2105;SDS011;1059;52.548;13.408;2022-09-16T02:10:55;2.83;;;1.60;;
2105;SDS011;1059;52.548;13.408;2022-09-16T02:13:25;2.13;;;1.50;;
2105;SDS011;1059;52.548;13.408;2022-09-16T02:15:57;5.13;;;2.07;;
2105;SDS011;1059;52.548;13.408;2022-09-16T02:18:30;2.57;;;2.20;;
2105;SDS011;1059;52.548;13.408;2022-09-16T02:21:00;3.93;;;2.07;;
2105;SDS011;1059;52.548;13.408;2022-09-16T02:23:31;3.77;;;2.63;;
2105;SDS011;1059;52.548;13.408;2022-09-16T02:26:03;6.43;;;2.20;;
2105;SDS011;1059;52.548;13.408;2022-09-16T02:28:33;3.73;;;1.80;;
2105;SDS011;1059;52.548;13.408;2022-09-16T02:31:05;8.37;;;2.10;;
2105;SDS011;1059;52.548;13.408;2022-09-16T02:33:36;7.63;;;2.20;;
2105;SDS011;1059;52.548;13.408;2022-09-16T02:36:06;11.33;;;2.30;;
2105;SDS011;1059;52.548;13.408;2022-09-16T02:38:41;4.93;;;2.00;;
2105;SDS011;1059;52.548;13.408;2022-09-16T02:41:12;3.20;;;2.53;;
2105;SDS011;1059;52.548;13.408;2022-09-16T02:43:39;5.17;;;2.40;;
2105;SDS011;1059;52.548;13.408;2022-09-16T02:46:08;6.20;;;2.20;;
2105;SDS011;1059;52.548;13.408;2022-09-16T02:48:44;8.13;;;2.40;;
2105;SDS011;1059;52.548;13.408;2022-09-16T02:51:22;6.43;;;2.43;;
2105;SDS011;1059;52.548;13.408;2022-09-16T02:53:58;3.97;;;2.47;;
2105;SDS011;1059;52.548;13.408;2022-09-16T02:56:31;2.70;;;2.37;;
2105;SDS011;1059;52.548;13.408;2022-09-16T02:59:00;10.67;;;2.57;;
2105;SDS011;1059;52.548;13.408;2022-09-16T03:01:30;7.00;;;2.87;;
2105;SDS011;1059;52.548;13.408;2022-09-16T03:04:03;4.63;;;3.00;;
2105;SDS011;1059;52.548;13.408;2022-09-16T03:06:30;6.20;;;2.57;;
2105;SDS011;1059;52.548;13.408;2022-09-16T03:09:00;4.57;;;2.23;;
2105;SDS011;1059;52.548;13.408;2022-09-16T03:14:30;10.67;;;2.70;;
2105;SDS011;1059;52.548;13.408;2022-09-16T03:17:13;8.07;;;3.50;;
2105;SDS011;1059;52.548;13.408;2022-09-16T03:19:55;7.60;;;3.10;;
2105;SDS011;1059;52.548;13.408;2022-09-16T03:22:29;5.17;;;3.40;;
2105;SDS011;1059;52.548;13.408;2022-09-16T03:25:09;6.03;;;3.10;;
2105;SDS011;1059;52.548;13.408;2022-09-16T03:27:49;5.90;;;3.07;;
2105;SDS011;1059;52.548;13.408;2022-09-16T03:30:18;6.33;;;3.07;;
2105;SDS011;1059;52.548;13.408;2022-09-16T03:32:47;5.70;;;3.10;;
2105;SDS011;1059;52.548;13.408;2022-09-16T03:35:23;4.67;;;3.43;;
2105;SDS011;1059;52.548;13.408;2022-09-16T03:37:54;7.63;;;3.27;;
2105;SDS011;1059;52.548;13.408;2022-09-16T03:40:24;6.30;;;3.40;;
2105;SDS011;1059;52.548;13.408;2022-09-16T03:42:53;6.53;;;3.80;;
2105;SDS011;1059;52.548;13.408;2022-09-16T03:45:21;6.07;;;4.30;;
2105;SDS011;1059;52.548;13.408;2022-09-16T03:47:49;10.50;;;4.50;;
2105;SDS011;1059;52.548;13.408;2022-09-16T03:50:18;5.00;;;3.97;;
2105;SDS011;1059;52.548;13.408;2022-09-16T03:52:47;8.90;;;6.10;;
2105;SDS011;1059;52.548;13.408;2022-09-16T03:55:14;11.30;;;6.57;;
2105;SDS011;1059;52.548;13.408;2022-09-16T03:57:42;6.93;;;6.23;;
2105;SDS011;1059;52.548;13.408;2022-09-16T04:00:09;7.23;;;6.63;;
2105;SDS011;1059;52.548;13.408;2022-09-16T04:02:37;8.43;;;6.80;;
2105;SDS011;1059;52.548;13.408;2022-09-16T04:05:04;8.17;;;7.37;;
2105;SDS011;1059;52.548;13.408;2022-09-16T04:07:32;7.80;;;6.60;;
2105;SDS011;1059;52.548;13.408;2022-09-16T04:10:00;9.33;;;5.80;;
2105;SDS011;1059;52.548;13.408;2022-09-16T04:12:27;8.23;;;5.80;;
2105;SDS011;1059;52.548;13.408;2022-09-16T04:14:54;7.07;;;6.07;;
2105;SDS011;1059;52.548;13.408;2022-09-16T04:17:21;6.67;;;5.83;;
2105;SDS011;1059;52.548;13.408;2022-09-16T04:19:48;7.33;;;6.07;;
2105;SDS011;1059;52.548;13.408;2022-09-16T04:22:15;7.50;;;5.30;;
2105;SDS011;1059;52.548;13.408;2022-09-16T04:24:42;6.70;;;4.83;;
2105;SDS011;1059;52.548;13.408;2022-09-16T04:27:10;10.00;;;4.80;;
2105;SDS011;1059;52.548;13.408;2022-09-16T04:29:37;6.60;;;3.80;;
2105;SDS011;1059;52.548;13.408;2022-09-16T04:32:04;8.20;;;3.60;;
2105;SDS011;1059;52.548;13.408;2022-09-16T04:34:30;11.93;;;4.80;;
2105;SDS011;1059;52.548;13.408;2022-09-16T04:36:57;5.57;;;4.90;;
2105;SDS011;1059;52.548;13.408;2022-09-16T04:39:24;6.60;;;5.97;;
2105;SDS011;1059;52.548;13.408;2022-09-16T04:41:51;8.20;;;6.90;;
2105;SDS011;1059;52.548;13.408;2022-09-16T04:44:19;9.47;;;8.27;;
2105;SDS011;1059;52.548;13.408;2022-09-16T04:46:46;9.80;;;8.80;;
2105;SDS011;1059;52.548;13.408;2022-09-16T04:49:13;9.07;;;8.33;;
2105;SDS011;1059;52.548;13.408;2022-09-16T04:51:40;10.07;;;8.80;;
2105;SDS011;1059;52.548;13.408;2022-09-16T04:54:06;9.50;;;8.20;;
2105;SDS011;1059;52.548;13.408;2022-09-16T04:56:33;10.70;;;7.57;;
2105;SDS011;1059;52.548;13.408;2022-09-16T04:59:01;9.70;;;7.97;;
2105;SDS011;1059;52.548;13.408;2022-09-16T05:01:30;8.93;;;8.07;;
2105;SDS011;1059;52.548;13.408;2022-09-16T05:03:59;9.73;;;7.23;;
2105;SDS011;1059;52.548;13.408;2022-09-16T05:06:28;7.00;;;6.30;;
2105;SDS011;1059;52.548;13.408;2022-09-16T05:08:57;5.43;;;4.43;;
2105;SDS011;1059;52.548;13.408;2022-09-16T05:11:24;9.07;;;6.97;;
2105;SDS011;1059;52.548;13.408;2022-09-16T05:13:52;10.70;;;8.17;;
2105;SDS011;1059;52.548;13.408;2022-09-16T05:16:20;11.27;;;6.03;;
2105;SDS011;1059;52.548;13.408;2022-09-16T05:18:50;8.30;;;7.57;;
2105;SDS011;1059;52.548;13.408;2022-09-16T05:21:19;9.80;;;8.50;;
2105;SDS011;1059;52.548;13.408;2022-09-16T05:23:47;9.37;;;7.00;;
2105;SDS011;1059;52.548;13.408;2022-09-16T05:26:16;7.67;;;6.60;;
2105;SDS011;1059;52.548;13.408;2022-09-16T05:28:44;11.73;;;6.03;;
2105;SDS011;1059;52.548;13.408;2022-09-16T05:31:12;8.40;;;6.53;;
2105;SDS011;1059;52.548;13.408;2022-09-16T05:33:41;7.00;;;6.30;;
2105;SDS011;1059;52.548;13.408;2022-09-16T05:36:11;7.23;;;5.97;;
2105;SDS011;1059;52.548;13.408;2022-09-16T05:38:39;11.00;;;5.17;;
2105;SDS011;1059;52.548;13.408;2022-09-16T05:41:06;7.53;;;4.33;;
2105;SDS011;1059;52.548;13.408;2022-09-16T05:43:33;6.17;;;5.47;;
2105;SDS011;1059;52.548;13.408;2022-09-16T05:46:01;8.40;;;5.40;;
2105;SDS011;1059;52.548;13.408;2022-09-16T05:48:28;5.87;;;4.90;;
2105;SDS011;1059;52.548;13.408;2022-09-16T05:50:56;8.97;;;4.90;;
2105;SDS011;1059;52.548;13.408;2022-09-16T05:53:26;5.97;;;5.10;;
2105;SDS011;1059;52.548;13.408;2022-09-16T05:55:55;6.00;;;4.60;;
2105;SDS011;1059;52.548;13.408;2022-09-16T05:58:22;7.00;;;5.40;;
2105;SDS011;1059;52.548;13.408;2022-09-16T06:00:50;4.93;;;4.13;;
2105;SDS011;1059;52.548;13.408;2022-09-16T06:03:17;11.60;;;4.77;;
2105;SDS011;1059;52.548;13.408;2022-09-16T06:05:45;7.17;;;3.77;;
2105;SDS011;1059;52.548;13.408;2022-09-16T06:08:12;7.13;;;4.53;;
2105;SDS011;1059;52.548;13.408;2022-09-16T06:10:40;5.53;;;3.90;;
2105;SDS011;1059;52.548;13.408;2022-09-16T06:13:07;10.10;;;4.80;;
2105;SDS011;1059;52.548;13.408;2022-09-16T06:15:34;6.40;;;4.23;;
2105;SDS011;1059;52.548;13.408;2022-09-16T06:18:00;4.87;;;4.37;;
2105;SDS011;1059;52.548;13.408;2022-09-16T06:20:28;10.50;;;4.33;;
2105;SDS011;1059;52.548;13.408;2022-09-16T06:22:54;7.60;;;3.80;;
2105;SDS011;1059;52.548;13.408;2022-09-16T06:25:21;4.47;;;3.67;;
2105;SDS011;1059;52.548;13.408;2022-09-16T06:27:50;6.60;;;5.03;;
2105;SDS011;1059;52.548;13.408;2022-09-16T06:30:17;10.37;;;4.53;;
2105;SDS011;1059;52.548;13.408;2022-09-16T06:32:44;8.77;;;4.10;;
2105;SDS011;1059;52.548;13.408;2022-09-16T06:35:10;9.10;;;4.63;;
2105;SDS011;1059;52.548;13.408;2022-09-16T06:37:38;6.63;;;4.57;;
2105;SDS011;1059;52.548;13.408;2022-09-16T06:40:05;6.10;;;4.20;;
2105;SDS011;1059;52.548;13.408;2022-09-16T06:42:32;5.60;;;3.03;;
2105;SDS011;1059;52.548;13.408;2022-09-16T06:45:00;5.57;;;3.03;;
2105;SDS011;1059;52.548;13.408;2022-09-16T06:47:28;4.43;;;2.80;;
2105;SDS011;1059;52.548;13.408;2022-09-16T06:49:57;7.60;;;3.30;;
2105;SDS011;1059;52.548;13.408;2022-09-16T06:52:24;5.20;;;2.87;;
2105;SDS011;1059;52.548;13.408;2022-09-16T06:54:51;4.67;;;2.60;;
2105;SDS011;1059;52.548;13.408;2022-09-16T06:57:18;2.53;;;2.33;;
2105;SDS011;1059;52.548;13.408;2022-09-16T06:59:47;7.43;;;3.20;;
2105;SDS011;1059;52.548;13.408;2022-09-16T07:02:15;4.33;;;2.60;;
2105;SDS011;1059;52.548;13.408;2022-09-16T07:04:42;4.63;;;2.70;;
2105;SDS011;1059;52.548;13.408;2022-09-16T07:07:09;10.57;;;4.27;;
2105;SDS011;1059;52.548;13.408;2022-09-16T07:09:36;5.67;;;2.80;;
2105;SDS011;1059;52.548;13.408;2022-09-16T07:12:03;6.80;;;2.53;;
2105;SDS011;1059;52.548;13.408;2022-09-16T07:14:30;3.10;;;2.00;;
2105;SDS011;1059;52.548;13.408;2022-09-16T07:16:57;4.90;;;2.53;;
2105;SDS011;1059;52.548;13.408;2022-09-16T07:19:26;4.30;;;2.33;;
2105;SDS011;1059;52.548;13.408;2022-09-16T07:21:52;7.80;;;2.50;;
2105;SDS011;1059;52.548;13.408;2022-09-16T07:24:19;3.80;;;2.23;;
2105;SDS011;1059;52.548;13.408;2022-09-16T07:26:46;3.20;;;2.40;;
2105;SDS011;1059;52.548;13.408;2022-09-16T07:29:14;8.53;;;2.50;;
2105;SDS011;1059;52.548;13.408;2022-09-16T07:31:42;6.30;;;2.40;;
2105;SDS011;1059;52.548;13.408;2022-09-16T07:34:09;5.40;;;2.47;;
2105;SDS011;1059;52.548;13.408;2022-09-16T07:36:39;5.87;;;1.97;;
2105;SDS011;1059;52.548;13.408;2022-09-16T07:39:08;3.87;;;1.80;;
2105;SDS011;1059;52.548;13.408;2022-09-16T07:41:36;3.83;;;1.50;;
2105;SDS011;1059;52.548;13.408;2022-09-16T07:44:05;3.37;;;2.03;;
2105;SDS011;1059;52.548;13.408;2022-09-16T07:46:34;2.13;;;1.50;;
2105;SDS011;1059;52.548;13.408;2022-09-16T07:49:02;5.20;;;2.10;;
2105;SDS011;1059;52.548;13.408;2022-09-16T07:51:30;3.20;;;1.60;;
2105;SDS011;1059;52.548;13.408;2022-09-16T07:53:59;4.97;;;1.40;;
2105;SDS011;1059;52.548;13.408;2022-09-16T07:56:29;3.90;;;1.57;;
2105;SDS011;1059;52.548;13.408;2022-09-16T07:58:58;3.17;;;1.20;;
2105;SDS011;1059;52.548;13.408;2022-09-16T08:01:26;2.80;;;1.70;;
2105;SDS011;1059;52.548;13.408;2022-09-16T08:03:55;4.30;;;1.30;;
2105;SDS011;1059;52.548;13.408;2022-09-16T08:06:22;4.67;;;1.90;;
2105;SDS011;1059;52.548;13.408;2022-09-16T08:08:51;4.50;;;1.33;;
2105;SDS011;1059;52.548;13.408;2022-09-16T08:11:20;3.00;;;1.67;;
2105;SDS011;1059;52.548;13.408;2022-09-16T08:13:47;3.20;;;1.70;;
2105;SDS011;1059;52.548;13.408;2022-09-16T08:16:15;4.60;;;1.13;;
2105;SDS011;1059;52.548;13.408;2022-09-16T08:18:43;2.30;;;1.23;;
2105;SDS011;1059;52.548;13.408;2022-09-16T08:21:12;4.90;;;1.90;;
2105;SDS011;1059;52.548;13.408;2022-09-16T08:23:41;3.70;;;1.23;;
2105;SDS011;1059;52.548;13.408;2022-09-16T08:26:08;3.00;;;1.30;;
2105;SDS011;1059;52.548;13.408;2022-09-16T08:28:38;4.20;;;1.27;;
2105;SDS011;1059;52.548;13.408;2022-09-16T08:31:06;3.30;;;1.50;;
2105;SDS011;1059;52.548;13.408;2022-09-16T08:33:33;3.30;;;1.30;;
2105;SDS011;1059;52.548;13.408;2022-09-16T08:36:01;2.77;;;1.27;;
2105;SDS011;1059;52.548;13.408;2022-09-16T08:38:30;2.90;;;1.30;;
2105;SDS011;1059;52.548;13.408;2022-09-16T08:41:00;4.67;;;1.30;;
2105;SDS011;1059;52.548;13.408;2022-09-16T08:43:33;3.90;;;1.50;;
2105;SDS011;1059;52.548;13.408;2022-09-16T08:46:07;2.90;;;1.60;;
2105;SDS011;1059;52.548;13.408;2022-09-16T08:48:44;2.00;;;1.10;;
2105;SDS011;1059;52.548;13.408;2022-09-16T08:51:18;5.70;;;1.80;;
2105;SDS011;1059;52.548;13.408;2022-09-16T08:53:48;2.33;;;1.20;;
2105;SDS011;1059;52.548;13.408;2022-09-16T08:56:20;4.00;;;1.50;;
2105;SDS011;1059;52.548;13.408;2022-09-16T08:58:49;3.43;;;1.10;;
2105;SDS011;1059;52.548;13.408;2022-09-16T09:01:22;7.50;;;1.67;;
2105;SDS011;1059;52.548;13.408;2022-09-16T09:03:54;3.37;;;1.20;;
2105;SDS011;1059;52.548;13.408;2022-09-16T09:06:32;4.23;;;1.30;;
2105;SDS011;1059;52.548;13.408;2022-09-16T09:09:21;3.60;;;1.20;;
2105;SDS011;1059;52.548;13.408;2022-09-16T09:11:57;3.67;;;1.50;;
2105;SDS011;1059;52.548;13.408;2022-09-16T09:14:31;5.50;;;1.27;;
2105;SDS011;1059;52.548;13.408;2022-09-16T09:17:06;3.53;;;1.33;;
2105;SDS011;1059;52.548;13.408;2022-09-16T09:19:47;4.33;;;1.50;;
2105;SDS011;1059;52.548;13.408;2022-09-16T09:22:27;2.50;;;1.20;;
2105;SDS011;1059;52.548;13.408;2022-09-16T09:25:14;2.90;;;0.90;;
2105;SDS011;1059;52.548;13.408;2022-09-16T09:27:50;3.70;;;1.30;;
2105;SDS011;1059;52.548;13.408;2022-09-16T09:30:24;3.87;;;1.77;;
2105;SDS011;1059;52.548;13.408;2022-09-16T09:32:59;3.97;;;1.20;;
2105;SDS011;1059;52.548;13.408;2022-09-16T09:35:41;2.87;;;1.13;;
2105;SDS011;1059;52.548;13.408;2022-09-16T09:41:09;10.20;;;1.40;;
2105;SDS011;1059;52.548;13.408;2022-09-16T09:43:39;7.23;;;1.10;;
2105;SDS011;1059;52.548;13.408;2022-09-16T09:46:11;6.93;;;2.27;;
2105;SDS011;1059;52.548;13.408;2022-09-16T09:48:45;5.17;;;1.07;;
2105;SDS011;1059;52.548;13.408;2022-09-16T09:51:15;13.40;;;1.30;;
2105;SDS011;1059;52.548;13.408;2022-09-16T09:53:48;7.30;;;1.10;;
2105;SDS011;1059;52.548;13.408;2022-09-16T09:56:19;5.57;;;1.10;;
2105;SDS011;1059;52.548;13.408;2022-09-16T09:58:50;3.20;;;1.20;;
2105;SDS011;1059;52.548;13.408;2022-09-16T10:01:24;3.30;;;1.20;;
2105;SDS011;1059;52.548;13.408;2022-09-16T10:03:52;4.07;;;1.03;;
2105;SDS011;1059;52.548;13.408;2022-09-16T10:06:24;6.33;;;1.23;;
2105;SDS011;1059;52.548;13.408;2022-09-16T10:08:54;7.43;;;1.23;;
2105;SDS011;1059;52.548;13.408;2022-09-16T10:11:23;6.60;;;1.30;;
2105;SDS011;1059;52.548;13.408;2022-09-16T10:13:53;4.90;;;1.37;;
2105;SDS011;1059;52.548;13.408;2022-09-16T10:16:25;6.43;;;1.10;;
2105;SDS011;1059;52.548;13.408;2022-09-16T10:18:56;9.37;;;1.60;;
2105;SDS011;1059;52.548;13.408;2022-09-16T10:21:36;5.17;;;1.07;;
2105;SDS011;1059;52.548;13.408;2022-09-16T10:24:23;5.30;;;1.63;;
2105;SDS011;1059;52.548;13.408;2022-09-16T10:26:58;4.17;;;0.90;;
2105;SDS011;1059;52.548;13.408;2022-09-16T10:29:27;6.77;;;1.10;;
2105;SDS011;1059;52.548;13.408;2022-09-16T10:31:54;4.23;;;1.13;;
2105;SDS011;1059;52.548;13.408;2022-09-16T10:34:26;4.00;;;1.17;;
2105;SDS011;1059;52.548;13.408;2022-09-16T10:37:02;7.53;;;1.10;;
2105;SDS011;1059;52.548;13.408;2022-09-16T10:39:31;5.10;;;1.63;;
2105;SDS011;1059;52.548;13.408;2022-09-16T10:41:59;5.00;;;1.30;;
2105;SDS011;1059;52.548;13.408;2022-09-16T10:44:27;6.63;;;1.60;;
2105;SDS011;1059;52.548;13.408;2022-09-16T10:46:56;3.10;;;1.20;;
2105;SDS011;1059;52.548;13.408;2022-09-16T10:49:30;5.20;;;1.20;;
2105;SDS011;1059;52.548;13.408;2022-09-16T10:52:13;5.57;;;1.10;;
2105;SDS011;1059;52.548;13.408;2022-09-16T10:54:42;4.00;;;0.90;;
2105;SDS011;1059;52.548;13.408;2022-09-16T10:57:20;3.37;;;1.07;;
2105;SDS011;1059;52.548;13.408;2022-09-16T10:59:58;5.47;;;0.97;;
2105;SDS011;1059;52.548;13.408;2022-09-16T11:02:33;6.90;;;1.17;;
2105;SDS011;1059;52.548;13.408;2022-09-16T11:05:24;5.10;;;1.17;;
2105;SDS011;1059;52.548;13.408;2022-09-16T11:07:58;2.90;;;1.17;;
2105;SDS011;1059;52.548;13.408;2022-09-16T11:10:33;4.17;;;1.00;;
2105;SDS011;1059;52.548;13.408;2022-09-16T11:13:15;2.80;;;0.90;;
2105;SDS011;1059;52.548;13.408;2022-09-16T11:16:03;3.73;;;1.03;;
2105;SDS011;1059;52.548;13.408;2022-09-16T11:18:42;5.40;;;1.87;;
2105;SDS011;1059;52.548;13.408;2022-09-16T11:21:28;5.90;;;1.10;;
2105;SDS011;1059;52.548;13.408;2022-09-16T11:24:13;5.60;;;1.30;;
2105;SDS011;1059;52.548;13.408;2022-09-16T11:26:54;5.97;;;0.90;;
2105;SDS011;1059;52.548;13.408;2022-09-16T11:29:42;3.63;;;1.00;;
2105;SDS011;1059;52.548;13.408;2022-09-16T11:32:29;3.23;;;1.00;;
2105;SDS011;1059;52.548;13.408;2022-09-16T11:38:09;5.23;;;1.10;;
2105;SDS011;1059;52.548;13.408;2022-09-16T11:40:45;4.40;;;1.10;;
2105;SDS011;1059;52.548;13.408;2022-09-16T11:43:30;4.23;;;1.20;;
2105;SDS011;1059;52.548;13.408;2022-09-16T11:46:16;7.33;;;1.13;;
2105;SDS011;1059;52.548;13.408;2022-09-16T11:48:53;5.93;;;0.90;;
2105;SDS011;1059;52.548;13.408;2022-09-16T11:51:49;3.60;;;1.00;;
2105;SDS011;1059;52.548;13.408;2022-09-16T11:54:31;2.07;;;1.10;;
2105;SDS011;1059;52.548;13.408;2022-09-16T11:57:14;3.93;;;0.90;;
2105;SDS011;1059;52.548;13.408;2022-09-16T11:59:46;3.97;;;1.10;;
2105;SDS011;1059;52.548;13.408;2022-09-16T12:02:18;3.13;;;0.80;;
2105;SDS011;1059;52.548;13.408;2022-09-16T12:04:52;3.33;;;0.90;;
2105;SDS011;1059;52.548;13.408;2022-09-16T12:07:25;2.90;;;0.90;;
2105;SDS011;1059;52.548;13.408;2022-09-16T12:09:59;4.80;;;1.00;;
2105;SDS011;1059;52.548;13.408;2022-09-16T12:12:31;4.50;;;1.17;;
2105;SDS011;1059;52.548;13.408;2022-09-16T12:15:04;3.40;;;1.10;;
2105;SDS011;1059;52.548;13.408;2022-09-16T12:17:41;1.80;;;0.87;;
2105;SDS011;1059;52.548;13.408;2022-09-16T12:20:16;1.53;;;0.70;;
2105;SDS011;1059;52.548;13.408;2022-09-16T12:22:46;2.57;;;0.87;;
2105;SDS011;1059;52.548;13.408;2022-09-16T12:25:20;10.40;;;0.93;;
2105;SDS011;1059;52.548;13.408;2022-09-16T12:27:52;3.30;;;1.10;;
2105;SDS011;1059;52.548;13.408;2022-09-16T12:30:26;4.80;;;1.00;;
2105;SDS011;1059;52.548;13.408;2022-09-16T12:32:58;2.63;;;1.07;;
2105;SDS011;1059;52.548;13.408;2022-09-16T12:35:30;3.80;;;1.17;;
2105;SDS011;1059;52.548;13.408;2022-09-16T12:38:00;1.53;;;0.90;;
2105;SDS011;1059;52.548;13.408;2022-09-16T12:40:30;4.93;;;1.17;;
2105;SDS011;1059;52.548;13.408;2022-09-16T12:43:12;5.40;;;0.90;;
2105;SDS011;1059;52.548;13.408;2022-09-16T12:48:46;3.10;;;1.03;;
2105;SDS011;1059;52.548;13.408;2022-09-16T12:51:32;4.90;;;1.47;;
2105;SDS011;1059;52.548;13.408;2022-09-16T12:54:31;4.07;;;0.80;;
2105;SDS011;1059;52.548;13.408;2022-09-16T12:57:20;1.30;;;0.77;;
2105;SDS011;1059;52.548;13.408;2022-09-16T13:00:09;1.90;;;0.80;;
2105;SDS011;1059;52.548;13.408;2022-09-16T13:02:40;2.03;;;0.63;;
2105;SDS011;1059;52.548;13.408;2022-09-16T13:05:11;3.50;;;0.90;;
2105;SDS011;1059;52.548;13.408;2022-09-16T13:07:46;1.50;;;0.90;;
2105;SDS011;1059;52.548;13.408;2022-09-16T13:10:17;2.73;;;0.77;;
2105;SDS011;1059;52.548;13.408;2022-09-16T13:12:50;3.80;;;0.73;;
2105;SDS011;1059;52.548;13.408;2022-09-16T13:15:22;1.77;;;0.80;;
2105;SDS011;1059;52.548;13.408;2022-09-16T13:17:51;1.80;;;0.90;;
2105;SDS011;1059;52.548;13.408;2022-09-16T13:20:19;11.67;;;1.33;;
2105;SDS011;1059;52.548;13.408;2022-09-16T13:22:51;2.60;;;0.90;;
2105;SDS011;1059;52.548;13.408;2022-09-16T13:25:28;1.70;;;0.87;;
2105;SDS011;1059;52.548;13.408;2022-09-16T13:28:00;4.93;;;0.90;;
2105;SDS011;1059;52.548;13.408;2022-09-16T13:30:33;2.50;;;0.80;;
2105;SDS011;1059;52.548;13.408;2022-09-16T13:33:17;4.20;;;1.27;;
2105;SDS011;1059;52.548;13.408;2022-09-16T13:35:49;1.10;;;0.70;;
2105;SDS011;1059;52.548;13.408;2022-09-16T13:38:35;2.43;;;1.00;;
2105;SDS011;1059;52.548;13.408;2022-09-16T13:41:04;4.10;;;0.97;;
2105;SDS011;1059;52.548;13.408;2022-09-16T13:43:36;5.90;;;1.17;;
2105;SDS011;1059;52.548;13.408;2022-09-16T13:46:25;3.37;;;1.00;;
2105;SDS011;1059;52.548;13.408;2022-09-16T13:48:55;4.33;;;1.10;;
2105;SDS011;1059;52.548;13.408;2022-09-16T13:51:31;6.10;;;0.97;;
2105;SDS011;1059;52.548;13.408;2022-09-16T13:54:03;4.80;;;1.10;;
2105;SDS011;1059;52.548;13.408;2022-09-16T13:56:46;3.73;;;1.00;;
2105;SDS011;1059;52.548;13.408;2022-09-16T13:59:28;4.90;;;1.13;;
2105;SDS011;1059;52.548;13.408;2022-09-16T14:02:07;2.43;;;0.90;;
2105;SDS011;1059;52.548;13.408;2022-09-16T14:04:44;3.10;;;0.80;;
2105;SDS011;1059;52.548;13.408;2022-09-16T14:07:28;2.77;;;1.03;;
2105;SDS011;1059;52.548;13.408;2022-09-16T14:10:05;2.97;;;0.80;;
2105;SDS011;1059;52.548;13.408;2022-09-16T14:12:42;3.73;;;1.07;;
2105;SDS011;1059;52.548;13.408;2022-09-16T14:15:19;1.57;;;0.90;;
2105;SDS011;1059;52.548;13.408;2022-09-16T14:17:48;3.33;;;0.90;;
2105;SDS011;1059;52.548;13.408;2022-09-16T14:20:17;2.90;;;1.00;;
2105;SDS011;1059;52.548;13.408;2022-09-16T14:22:45;3.53;;;1.10;;
2105;SDS011;1059;52.548;13.408;2022-09-16T14:25:28;7.43;;;1.00;;
2105;SDS011;1059;52.548;13.408;2022-09-16T14:28:07;2.13;;;0.83;;
2105;SDS011;1059;52.548;13.408;2022-09-16T14:30:44;5.37;;;1.00;;
2105;SDS011;1059;52.548;13.408;2022-09-16T14:33:16;3.93;;;1.00;;
2105;SDS011;1059;52.548;13.408;2022-09-16T14:35:47;2.47;;;0.97;;
2105;SDS011;1059;52.548;13.408;2022-09-16T14:38:17;1.63;;;0.90;;
2105;SDS011;1059;52.548;13.408;2022-09-16T14:40:45;4.03;;;1.10;;
2105;SDS011;1059;52.548;13.408;2022-09-16T14:43:13;4.10;;;1.10;;
2105;SDS011;1059;52.548;13.408;2022-09-16T14:45:45;2.30;;;1.10;;
2105;SDS011;1059;52.548;13.408;2022-09-16T14:48:15;6.80;;;1.30;;
2105;SDS011;1059;52.548;13.408;2022-09-16T14:50:45;2.30;;;0.87;;
2105;SDS011;1059;52.548;13.408;2022-09-16T14:53:24;2.03;;;1.03;;
2105;SDS011;1059;52.548;13.408;2022-09-16T14:55:53;5.97;;;1.00;;
2105;SDS011;1059;52.548;13.408;2022-09-16T14:58:20;2.80;;;0.77;;
2105;SDS011;1059;52.548;13.408;2022-09-16T15:00:51;6.73;;;1.67;;
2105;SDS011;1059;52.548;13.408;2022-09-16T15:03:23;10.60;;;1.00;;
2105;SDS011;1059;52.548;13.408;2022-09-16T15:05:56;5.17;;;1.20;;
2105;SDS011;1059;52.548;13.408;2022-09-16T15:08:31;2.20;;;0.80;;
2105;SDS011;1059;52.548;13.408;2022-09-16T15:11:09;3.63;;;0.97;;
2105;SDS011;1059;52.548;13.408;2022-09-16T15:13:38;7.23;;;1.37;;
2105;SDS011;1059;52.548;13.408;2022-09-16T15:16:09;3.70;;;0.90;;
2105;SDS011;1059;52.548;13.408;2022-09-16T15:18:38;3.10;;;1.00;;
2105;SDS011;1059;52.548;13.408;2022-09-16T15:21:09;4.60;;;1.10;;
2105;SDS011;1059;52.548;13.408;2022-09-16T15:23:38;3.40;;;0.90;;
2105;SDS011;1059;52.548;13.408;2022-09-16T15:26:11;5.27;;;0.90;;
2105;SDS011;1059;52.548;13.408;2022-09-16T15:28:48;5.50;;;1.13;;
2105;SDS011;1059;52.548;13.408;2022-09-16T15:31:28;5.50;;;1.23;;
2105;SDS011;1059;52.548;13.408;2022-09-16T15:33:57;3.50;;;1.00;;
2105;SDS011;1059;52.548;13.408;2022-09-16T15:36:35;3.00;;;0.90;;
2105;SDS011;1059;52.548;13.408;2022-09-16T15:39:19;7.73;;;1.13;;
2105;SDS011;1059;52.548;13.408;2022-09-16T15:41:48;8.00;;;1.10;;